Fort Snelling, Minnesota
Current Conditions -  °F | °C
As of 9:53 PM on Wednesday 26 Nov 2014 (Local Time) from KMSP Reporting Station
Light Snow Light Snow  
Wind Chill:   Ceiling: 3900
Heat Index: 17°   Visibility: 7mi
Dew Point:   Wind: 14mph
Humidity: 71%   Direction: 340°NNW
Pressure: 30.35"   Gusts: NA
Location:  44.8695°N, 93.2126°W
Report Text: KMSP 270353Z 34012KT 7SM -SN OVC039 M08/M13 A3035 RMK AO2 SNB0255 SLP294 P0000 T10831128
Loading
Personal Weather Stations






























Interactive Weather Map New forecast layout! Learn more

10-Day Weather Forecast

Advertisements
Track Severe Weather on mobile